sensor_id;sensor_type;location;lat;lon;timestamp;P1;P2;P0
78316;PMS7003;67572;50.930;18.276;2023-08-21T00:00:19;23.75;23.75;21.25
78316;PMS7003;67572;50.930;18.276;2023-08-21T00:03:24;24.33;24.33;21.33
78316;PMS7003;67572;50.930;18.276;2023-08-21T00:06:28;26.75;24.75;21.00
78316;PMS7003;67572;50.930;18.276;2023-08-21T00:09:31;20.50;20.50;17.50
78316;PMS7003;67572;50.930;18.276;2023-08-21T00:12:35;23.75;21.25;19.75
78316;PMS7003;67572;50.930;18.276;2023-08-21T00:15:39;24.00;24.00;22.00
78316;PMS7003;67572;50.930;18.276;2023-08-21T00:18:44;26.00;22.00;20.75
78316;PMS7003;67572;50.930;18.276;2023-08-21T00:21:47;27.33;26.33;20.33
78316;PMS7003;67572;50.930;18.276;2023-08-21T00:24:51;21.75;21.75;20.25
78316;PMS7003;67572;50.930;18.276;2023-08-21T00:27:57;23.50;22.25;20.00
78316;PMS7003;67572;50.930;18.276;2023-08-21T00:31:01;24.50;22.25;20.00
78316;PMS7003;67572;50.930;18.276;2023-08-21T00:34:06;21.00;19.25;18.00
78316;PMS7003;67572;50.930;18.276;2023-08-21T00:37:09;23.50;23.25;18.00
78316;PMS7003;67572;50.930;18.276;2023-08-21T00:40:13;26.00;25.00;22.33
78316;PMS7003;67572;50.930;18.276;2023-08-21T00:43:17;24.67;22.67;20.00
78316;PMS7003;67572;50.930;18.276;2023-08-21T00:46:22;15.25;13.75;12.25
78316;PMS7003;67572;50.930;18.276;2023-08-21T00:49:27;20.50;20.50;18.50
78316;PMS7003;67572;50.930;18.276;2023-08-21T00:52:32;20.50;18.50;17.00
78316;PMS7003;67572;50.930;18.276;2023-08-21T00:55:37;24.00;24.00;21.00
78316;PMS7003;67572;50.930;18.276;2023-08-21T00:58:41;27.50;24.75;18.50
78316;PMS7003;67572;50.930;18.276;2023-08-21T01:01:45;27.25;27.00;21.25
78316;PMS7003;67572;50.930;18.276;2023-08-21T01:04:50;26.25;26.25;22.50
78316;PMS7003;67572;50.930;18.276;2023-08-21T01:07:56;28.00;25.67;20.33
78316;PMS7003;67572;50.930;18.276;2023-08-21T01:11:05;30.33;30.33;24.00
78316;PMS7003;67572;50.930;18.276;2023-08-21T01:14:16;33.33;33.33;28.00
78316;PMS7003;67572;50.930;18.276;2023-08-21T01:17:29;34.33;32.67;28.00
78316;PMS7003;67572;50.930;18.276;2023-08-21T01:20:34;37.33;33.00;27.67
78316;PMS7003;67572;50.930;18.276;2023-08-21T01:23:40;34.67;30.33;23.33
78316;PMS7003;67572;50.930;18.276;2023-08-21T01:26:45;29.00;27.67;24.33
78316;PMS7003;67572;50.930;18.276;2023-08-21T01:29:48;28.75;27.75;23.00
78316;PMS7003;67572;50.930;18.276;2023-08-21T01:32:55;27.00;27.00;22.00
78316;PMS7003;67572;50.930;18.276;2023-08-21T01:36:03;31.00;30.25;25.75
78316;PMS7003;67572;50.930;18.276;2023-08-21T01:39:09;29.75;28.75;24.00
78316;PMS7003;67572;50.930;18.276;2023-08-21T01:42:13;32.33;32.33;27.67
78316;PMS7003;67572;50.930;18.276;2023-08-21T01:45:16;34.33;34.00;28.00
78316;PMS7003;67572;50.930;18.276;2023-08-21T01:48:20;32.00;31.00;26.67
78316;PMS7003;67572;50.930;18.276;2023-08-21T01:51:23;33.25;33.25;24.75
78316;PMS7003;67572;50.930;18.276;2023-08-21T01:54:28;33.67;31.33;26.33
78316;PMS7003;67572;50.930;18.276;2023-08-21T01:57:32;35.33;33.67;28.33
78316;PMS7003;67572;50.930;18.276;2023-08-21T02:00:36;30.00;30.00;24.67
78316;PMS7003;67572;50.930;18.276;2023-08-21T02:03:40;36.33;36.33;28.33
78316;PMS7003;67572;50.930;18.276;2023-08-21T02:06:43;32.67;31.00;23.33
78316;PMS7003;67572;50.930;18.276;2023-08-21T02:09:48;38.67;37.33;28.33
78316;PMS7003;67572;50.930;18.276;2023-08-21T02:12:52;36.00;34.00;27.00
78316;PMS7003;67572;50.930;18.276;2023-08-21T02:15:56;25.75;25.75;21.25
78316;PMS7003;67572;50.930;18.276;2023-08-21T02:18:59;32.50;31.75;27.50
78316;PMS7003;67572;50.930;18.276;2023-08-21T02:22:03;31.75;30.00;22.75
78316;PMS7003;67572;50.930;18.276;2023-08-21T02:25:08;28.75;27.75;25.25
78316;PMS7003;67572;50.930;18.276;2023-08-21T02:28:11;31.00;29.75;24.50
78316;PMS7003;67572;50.930;18.276;2023-08-21T02:31:15;33.75;30.25;26.00
78316;PMS7003;67572;50.930;18.276;2023-08-21T02:34:19;37.00;35.25;26.50
78316;PMS7003;67572;50.930;18.276;2023-08-21T02:37:22;29.50;29.50;26.25
78316;PMS7003;67572;50.930;18.276;2023-08-21T02:40:27;36.00;35.00;28.00
78316;PMS7003;67572;50.930;18.276;2023-08-21T02:43:30;31.25;29.75;24.75
78316;PMS7003;67572;50.930;18.276;2023-08-21T02:46:34;35.00;32.00;27.75
78316;PMS7003;67572;50.930;18.276;2023-08-21T02:49:38;36.75;34.00;28.00
78316;PMS7003;67572;50.930;18.276;2023-08-21T02:52:42;31.75;31.75;24.00
78316;PMS7003;67572;50.930;18.276;2023-08-21T02:55:46;26.25;24.75;24.00
78316;PMS7003;67572;50.930;18.276;2023-08-21T02:58:50;32.50;31.75;27.75
78316;PMS7003;67572;50.930;18.276;2023-08-21T03:01:53;30.75;28.50;25.00
78316;PMS7003;67572;50.930;18.276;2023-08-21T03:04:57;31.00;30.50;24.25
78316;PMS7003;67572;50.930;18.276;2023-08-21T03:08:00;32.75;32.75;25.50
78316;PMS7003;67572;50.930;18.276;2023-08-21T03:11:05;34.75;34.25;26.25
78316;PMS7003;67572;50.930;18.276;2023-08-21T03:14:08;27.75;27.75;23.25
78316;PMS7003;67572;50.930;18.276;2023-08-21T03:17:12;26.50;26.00;24.50
78316;PMS7003;67572;50.930;18.276;2023-08-21T03:20:15;39.00;37.67;28.00
78316;PMS7003;67572;50.930;18.276;2023-08-21T03:23:20;23.50;23.50;21.75
78316;PMS7003;67572;50.930;18.276;2023-08-21T03:26:26;30.25;30.25;26.00
78316;PMS7003;67572;50.930;18.276;2023-08-21T03:29:30;32.00;30.25;27.00
78316;PMS7003;67572;50.930;18.276;2023-08-21T03:32:33;30.75;30.75;25.00
78316;PMS7003;67572;50.930;18.276;2023-08-21T03:35:38;29.00;28.67;24.67
78316;PMS7003;67572;50.930;18.276;2023-08-21T03:38:41;27.25;26.50;23.50
78316;PMS7003;67572;50.930;18.276;2023-08-21T03:41:46;34.00;34.00;27.00
78316;PMS7003;67572;50.930;18.276;2023-08-21T03:44:50;33.67;32.67;28.00
78316;PMS7003;67572;50.930;18.276;2023-08-21T03:47:53;26.50;26.50;20.25
78316;PMS7003;67572;50.930;18.276;2023-08-21T03:50:57;31.25;27.75;24.50
78316;PMS7003;67572;50.930;18.276;2023-08-21T03:54:00;29.25;26.25;22.25
78316;PMS7003;67572;50.930;18.276;2023-08-21T03:57:06;30.00;27.75;21.00
78316;PMS7003;67572;50.930;18.276;2023-08-21T04:00:09;31.00;29.50;24.50
78316;PMS7003;67572;50.930;18.276;2023-08-21T04:03:16;23.33;23.33;21.67
78316;PMS7003;67572;50.930;18.276;2023-08-21T04:06:20;38.67;36.67;28.33
78316;PMS7003;67572;50.930;18.276;2023-08-21T04:09:23;35.67;34.67;28.00
78316;PMS7003;67572;50.930;18.276;2023-08-21T04:12:28;79.67;66.00;44.67
78316;PMS7003;67572;50.930;18.276;2023-08-21T04:15:33;32.33;32.33;27.67
78316;PMS7003;67572;50.930;18.276;2023-08-21T04:18:38;43.33;41.67;31.00
78316;PMS7003;67572;50.930;18.276;2023-08-21T04:21:43;37.67;31.67;26.67
78316;PMS7003;67572;50.930;18.276;2023-08-21T04:24:46;24.00;24.00;23.67
78316;PMS7003;67572;50.930;18.276;2023-08-21T04:27:51;37.33;37.33;28.67
78316;PMS7003;67572;50.930;18.276;2023-08-21T04:30:56;36.00;36.00;28.33
78316;PMS7003;67572;50.930;18.276;2023-08-21T04:34:00;48.67;45.33;32.00
78316;PMS7003;67572;50.930;18.276;2023-08-21T04:41:28;46.00;42.67;31.33
78316;PMS7003;67572;50.930;18.276;2023-08-21T04:46:00;41.00;38.67;27.00
78316;PMS7003;67572;50.930;18.276;2023-08-21T04:49:04;39.00;35.00;26.00
78316;PMS7003;67572;50.930;18.276;2023-08-21T04:52:08;40.00;35.00;25.67
78316;PMS7003;67572;50.930;18.276;2023-08-21T04:55:11;45.67;41.67;30.00
78316;PMS7003;67572;50.930;18.276;2023-08-21T04:58:15;47.67;44.67;28.00
78316;PMS7003;67572;50.930;18.276;2023-08-21T05:01:21;47.33;44.33;30.67
78316;PMS7003;67572;50.930;18.276;2023-08-21T05:04:26;34.33;33.33;24.00
78316;PMS7003;67572;50.930;18.276;2023-08-21T05:07:30;40.33;36.67;30.67
78316;PMS7003;67572;50.930;18.276;2023-08-21T05:10:35;48.00;42.00;33.00
78316;PMS7003;67572;50.930;18.276;2023-08-21T05:13:39;49.67;44.67;32.33
78316;PMS7003;67572;50.930;18.276;2023-08-21T05:16:46;54.33;49.00;33.33
78316;PMS7003;67572;50.930;18.276;2023-08-21T05:19:49;47.67;43.67;30.67
78316;PMS7003;67572;50.930;18.276;2023-08-21T05:22:52;46.33;43.67;32.33
78316;PMS7003;67572;50.930;18.276;2023-08-21T05:25:55;41.67;41.67;33.00
78316;PMS7003;67572;50.930;18.276;2023-08-21T05:28:59;39.67;39.67;27.33
78316;PMS7003;67572;50.930;18.276;2023-08-21T05:32:04;47.33;45.67;33.00
78316;PMS7003;67572;50.930;18.276;2023-08-21T05:35:09;48.33;40.67;31.00
78316;PMS7003;67572;50.930;18.276;2023-08-21T05:38:13;46.67;43.33;30.33
78316;PMS7003;67572;50.930;18.276;2023-08-21T05:41:16;37.33;36.33;28.33
78316;PMS7003;67572;50.930;18.276;2023-08-21T05:44:20;35.33;34.33;24.67
78316;PMS7003;67572;50.930;18.276;2023-08-21T05:47:25;45.67;42.67;29.33
78316;PMS7003;67572;50.930;18.276;2023-08-21T05:50:28;33.50;33.00;27.25
78316;PMS7003;67572;50.930;18.276;2023-08-21T05:53:32;48.67;44.00;31.00
78316;PMS7003;67572;50.930;18.276;2023-08-21T05:56:36;45.00;40.33;30.00
78316;PMS7003;67572;50.930;18.276;2023-08-21T05:59:43;35.00;34.00;27.33
78316;PMS7003;67572;50.930;18.276;2023-08-21T06:02:49;36.50;36.50;24.50
78316;PMS7003;67572;50.930;18.276;2023-08-21T06:06:12;20.50;15.50;11.25
78316;PMS7003;67572;50.930;18.276;2023-08-21T06:09:16;23.50;23.50;19.50
78316;PMS7003;67572;50.930;18.276;2023-08-21T06:12:19;25.00;23.50;19.00
78316;PMS7003;67572;50.930;18.276;2023-08-21T06:15:23;26.25;26.00;21.75
78316;PMS7003;67572;50.930;18.276;2023-08-21T06:18:45;23.25;23.25;17.50
78316;PMS7003;67572;50.930;18.276;2023-08-21T06:22:29;22.00;19.25;17.00
78316;PMS7003;67572;50.930;18.276;2023-08-21T06:25:32;18.00;17.00;15.00
78316;PMS7003;67572;50.930;18.276;2023-08-21T06:28:36;21.75;19.50;17.00
78316;PMS7003;67572;50.930;18.276;2023-08-21T06:31:39;20.50;20.50;17.50
78316;PMS7003;67572;50.930;18.276;2023-08-21T06:34:44;17.75;17.75;15.50
78316;PMS7003;67572;50.930;18.276;2023-08-21T06:37:50;13.50;13.50;13.50
78316;PMS7003;67572;50.930;18.276;2023-08-21T06:40:56;12.50;12.50;11.75
78316;PMS7003;67572;50.930;18.276;2023-08-21T06:43:59;18.00;18.00;13.00
78316;PMS7003;67572;50.930;18.276;2023-08-21T06:47:03;18.50;15.00;12.50
78316;PMS7003;67572;50.930;18.276;2023-08-21T06:50:08;14.75;13.25;11.75
78316;PMS7003;67572;50.930;18.276;2023-08-21T06:53:12;8.20;8.00;7.60
78316;PMS7003;67572;50.930;18.276;2023-08-21T06:56:15;10.00;10.00;8.00
78316;PMS7003;67572;50.930;18.276;2023-08-21T06:59:19;17.25;16.00;14.25
78316;PMS7003;67572;50.930;18.276;2023-08-21T07:02:22;14.50;12.50;12.00
78316;PMS7003;67572;50.930;18.276;2023-08-21T07:05:27;13.50;13.50;11.50
78316;PMS7003;67572;50.930;18.276;2023-08-21T07:08:30;14.75;14.00;11.00
78316;PMS7003;67572;50.930;18.276;2023-08-21T07:11:33;10.80;10.80;10.00
78316;PMS7003;67572;50.930;18.276;2023-08-21T07:14:36;10.40;10.40;9.20
78316;PMS7003;67572;50.930;18.276;2023-08-21T07:17:39;15.75;15.75;13.00
78316;PMS7003;67572;50.930;18.276;2023-08-21T07:20:44;11.00;11.00;9.80
78316;PMS7003;67572;50.930;18.276;2023-08-21T07:23:47;14.00;12.00;10.75
78316;PMS7003;67572;50.930;18.276;2023-08-21T07:26:51;13.75;12.50;9.75
78316;PMS7003;67572;50.930;18.276;2023-08-21T07:29:56;13.75;13.75;13.50
78316;PMS7003;67572;50.930;18.276;2023-08-21T07:33:00;12.80;11.20;11.00
78316;PMS7003;67572;50.930;18.276;2023-08-21T07:36:07;12.00;12.00;11.00
78316;PMS7003;67572;50.930;18.276;2023-08-21T07:39:10;12.50;12.50;12.00
78316;PMS7003;67572;50.930;18.276;2023-08-21T07:42:13;17.75;17.75;14.00
78316;PMS7003;67572;50.930;18.276;2023-08-21T07:45:17;19.75;17.75;16.50
78316;PMS7003;67572;50.930;18.276;2023-08-21T07:48:20;18.75;18.75;16.00
78316;PMS7003;67572;50.930;18.276;2023-08-21T07:51:25;17.00;17.00;14.50
78316;PMS7003;67572;50.930;18.276;2023-08-21T07:54:28;15.20;14.00;12.00
78316;PMS7003;67572;50.930;18.276;2023-08-21T07:57:31;16.20;14.40;12.40
78316;PMS7003;67572;50.930;18.276;2023-08-21T08:00:35;8.60;7.60;7.40
78316;PMS7003;67572;50.930;18.276;2023-08-21T08:03:39;11.20;11.20;8.80
78316;PMS7003;67572;50.930;18.276;2023-08-21T08:06:44;12.00;12.00;11.80
78316;PMS7003;67572;50.930;18.276;2023-08-21T08:09:47;11.40;11.40;10.60
78316;PMS7003;67572;50.930;18.276;2023-08-21T08:12:53;15.00;14.40;13.20
78316;PMS7003;67572;50.930;18.276;2023-08-21T08:15:59;12.80;12.00;11.20
78316;PMS7003;67572;50.930;18.276;2023-08-21T08:19:02;12.00;11.00;9.00
78316;PMS7003;67572;50.930;18.276;2023-08-21T08:22:07;7.60;7.60;6.00
78316;PMS7003;67572;50.930;18.276;2023-08-21T08:25:10;9.00;9.00;9.00
78316;PMS7003;67572;50.930;18.276;2023-08-21T08:28:15;17.80;13.40;13.00
78316;PMS7003;67572;50.930;18.276;2023-08-21T08:31:18;9.00;9.00;8.60
78316;PMS7003;67572;50.930;18.276;2023-08-21T08:34:25;11.20;10.60;10.60
78316;PMS7003;67572;50.930;18.276;2023-08-21T08:37:29;10.40;10.40;9.60
78316;PMS7003;67572;50.930;18.276;2023-08-21T08:40:33;9.40;9.40;8.80
78316;PMS7003;67572;50.930;18.276;2023-08-21T08:43:40;12.20;12.20;10.80
78316;PMS7003;67572;50.930;18.276;2023-08-21T08:46:43;6.00;6.00;6.00
78316;PMS7003;67572;50.930;18.276;2023-08-21T08:49:49;10.40;9.00;7.60
78316;PMS7003;67572;50.930;18.276;2023-08-21T08:52:55;8.60;7.60;6.00
78316;PMS7003;67572;50.930;18.276;2023-08-21T08:56:16;5.20;5.20;4.60
78316;PMS7003;67572;50.930;18.276;2023-08-21T08:59:20;8.20;8.20;8.00
78316;PMS7003;67572;50.930;18.276;2023-08-21T09:02:23;7.20;7.20;6.00
78316;PMS7003;67572;50.930;18.276;2023-08-21T09:05:28;6.00;6.00;5.80
78316;PMS7003;67572;50.930;18.276;2023-08-21T09:08:56;10.60;8.60;7.60
78316;PMS7003;67572;50.930;18.276;2023-08-21T09:12:00;7.20;7.20;7.20
78316;PMS7003;67572;50.930;18.276;2023-08-21T09:15:06;5.40;4.40;4.20
78316;PMS7003;67572;50.930;18.276;2023-08-21T09:18:13;5.40;5.40;5.40
78316;PMS7003;67572;50.930;18.276;2023-08-21T09:21:18;8.80;8.60;7.80
78316;PMS7003;67572;50.930;18.276;2023-08-21T09:24:23;9.40;6.20;5.20
78316;PMS7003;67572;50.930;18.276;2023-08-21T09:27:26;2.00;2.00;2.00
78316;PMS7003;67572;50.930;18.276;2023-08-21T09:30:30;8.60;7.20;6.40
78316;PMS7003;67572;50.930;18.276;2023-08-21T09:33:34;9.00;9.00;8.00
78316;PMS7003;67572;50.930;18.276;2023-08-21T09:36:37;9.80;9.80;8.60
78316;PMS7003;67572;50.930;18.276;2023-08-21T09:39:43;9.20;8.60;8.00
78316;PMS7003;67572;50.930;18.276;2023-08-21T09:56:54;8.40;8.40;7.00
78316;PMS7003;67572;50.930;18.276;2023-08-21T09:59:58;8.80;7.80;6.00
78316;PMS7003;67572;50.930;18.276;2023-08-21T10:03:12;7.00;7.00;6.00
78316;PMS7003;67572;50.930;18.276;2023-08-21T10:06:17;10.20;9.00;6.40
78316;PMS7003;67572;50.930;18.276;2023-08-21T10:09:24;6.60;6.60;6.60
78316;PMS7003;67572;50.930;18.276;2023-08-21T10:12:31;7.20;7.20;6.40
78316;PMS7003;67572;50.930;18.276;2023-08-21T10:25:41;11.20;11.20;8.00
78316;PMS7003;67572;50.930;18.276;2023-08-21T10:28:50;9.40;9.40;9.00
78316;PMS7003;67572;50.930;18.276;2023-08-21T10:32:03;8.60;7.40;6.60
78316;PMS7003;67572;50.930;18.276;2023-08-21T10:35:09;11.60;11.60;10.80
78316;PMS7003;67572;50.930;18.276;2023-08-21T10:38:21;10.80;10.80;10.60
78316;PMS7003;67572;50.930;18.276;2023-08-21T10:41:54;10.80;10.80;8.60
78316;PMS7003;67572;50.930;18.276;2023-08-21T10:45:02;8.40;8.40;7.60
78316;PMS7003;67572;50.930;18.276;2023-08-21T10:48:13;11.40;11.40;10.20
78316;PMS7003;67572;50.930;18.276;2023-08-21T10:51:16;11.20;9.80;9.80
78316;PMS7003;67572;50.930;18.276;2023-08-21T10:54:20;12.00;12.00;11.00
78316;PMS7003;67572;50.930;18.276;2023-08-21T10:57:23;12.00;10.40;7.80
78316;PMS7003;67572;50.930;18.276;2023-08-21T11:00:31;10.80;8.40;7.20
78316;PMS7003;67572;50.930;18.276;2023-08-21T11:03:38;12.00;11.20;11.00
78316;PMS7003;67572;50.930;18.276;2023-08-21T11:06:41;12.00;12.00;10.40
78316;PMS7003;67572;50.930;18.276;2023-08-21T11:09:44;11.00;11.00;10.00
78316;PMS7003;67572;50.930;18.276;2023-08-21T11:12:48;10.80;10.00;8.40
78316;PMS7003;67572;50.930;18.276;2023-08-21T11:16:00;8.40;8.40;8.00
78316;PMS7003;67572;50.930;18.276;2023-08-21T11:19:05;10.60;10.40;9.20
78316;PMS7003;67572;50.930;18.276;2023-08-21T11:22:08;8.00;8.00;8.00
78316;PMS7003;67572;50.930;18.276;2023-08-21T11:25:14;8.80;8.80;7.20
78316;PMS7003;67572;50.930;18.276;2023-08-21T11:28:17;12.40;10.80;8.60
78316;PMS7003;67572;50.930;18.276;2023-08-21T11:31:22;11.00;11.00;11.00
78316;PMS7003;67572;50.930;18.276;2023-08-21T11:34:26;12.80;12.00;11.40
78316;PMS7003;67572;50.930;18.276;2023-08-21T11:37:30;11.40;11.40;9.60
78316;PMS7003;67572;50.930;18.276;2023-08-21T11:40:34;11.00;9.40;9.00
78316;PMS7003;67572;50.930;18.276;2023-08-21T11:43:38;8.80;8.80;7.40
78316;PMS7003;67572;50.930;18.276;2023-08-21T11:46:44;15.80;14.40;12.20
78316;PMS7003;67572;50.930;18.276;2023-08-21T11:49:48;11.80;11.00;11.00
78316;PMS7003;67572;50.930;18.276;2023-08-21T11:52:53;9.60;9.60;7.80
78316;PMS7003;67572;50.930;18.276;2023-08-21T11:55:58;9.00;9.00;9.00
78316;PMS7003;67572;50.930;18.276;2023-08-21T11:59:01;12.00;12.00;9.00
78316;PMS7003;67572;50.930;18.276;2023-08-21T12:02:13;12.00;12.00;11.40
78316;PMS7003;67572;50.930;18.276;2023-08-21T12:05:17;14.00;12.80;10.80
78316;PMS7003;67572;50.930;18.276;2023-08-21T12:08:21;6.00;6.00;6.00
78316;PMS7003;67572;50.930;18.276;2023-08-21T12:11:25;12.80;11.60;10.20
78316;PMS7003;67572;50.930;18.276;2023-08-21T12:14:28;13.60;13.60;12.20
78316;PMS7003;67572;50.930;18.276;2023-08-21T12:17:34;9.00;9.00;9.00
78316;PMS7003;67572;50.930;18.276;2023-08-21T12:20:40;11.20;10.80;10.00
78316;PMS7003;67572;50.930;18.276;2023-08-21T12:23:44;8.40;8.40;7.00
78316;PMS7003;67572;50.930;18.276;2023-08-21T12:26:48;10.60;10.60;9.60
78316;PMS7003;67572;50.930;18.276;2023-08-21T12:29:52;11.00;11.00;10.60
78316;PMS7003;67572;50.930;18.276;2023-08-21T12:32:56;8.80;8.80;8.40
78316;PMS7003;67572;50.930;18.276;2023-08-21T12:36:13;12.60;11.80;10.80
78316;PMS7003;67572;50.930;18.276;2023-08-21T12:39:16;12.20;12.20;9.40
78316;PMS7003;67572;50.930;18.276;2023-08-21T12:42:22;12.00;12.00;11.60
78316;PMS7003;67572;50.930;18.276;2023-08-21T12:45:25;9.40;9.40;9.00
78316;PMS7003;67572;50.930;18.276;2023-08-21T12:48:30;10.00;10.00;8.00
78316;PMS7003;67572;50.930;18.276;2023-08-21T12:51:33;13.00;12.40;10.00
78316;PMS7003;67572;50.930;18.276;2023-08-21T12:54:36;9.00;9.00;8.60
78316;PMS7003;67572;50.930;18.276;2023-08-21T12:57:40;10.00;10.00;9.40
78316;PMS7003;67572;50.930;18.276;2023-08-21T13:00:44;9.00;9.00;8.00
78316;PMS7003;67572;50.930;18.276;2023-08-21T13:03:50;9.00;8.40;8.00
78316;PMS7003;67572;50.930;18.276;2023-08-21T13:06:57;9.80;9.80;9.40
78316;PMS7003;67572;50.930;18.276;2023-08-21T13:10:00;8.40;8.40;8.40
78316;PMS7003;67572;50.930;18.276;2023-08-21T13:13:06;8.00;8.00;8.00
78316;PMS7003;67572;50.930;18.276;2023-08-21T13:16:09;7.60;7.60;7.40
78316;PMS7003;67572;50.930;18.276;2023-08-21T13:19:14;10.20;10.20;9.40
78316;PMS7003;67572;50.930;18.276;2023-08-21T13:22:18;7.00;7.00;6.60
78316;PMS7003;67572;50.930;18.276;2023-08-21T13:25:22;9.00;9.00;8.60
78316;PMS7003;67572;50.930;18.276;2023-08-21T13:32:12;5.00;5.00;5.00
78316;PMS7003;67572;50.930;18.276;2023-08-21T13:35:16;9.60;9.60;9.20
78316;PMS7003;67572;50.930;18.276;2023-08-21T13:38:23;8.60;8.60;8.40
78316;PMS7003;67572;50.930;18.276;2023-08-21T13:41:26;6.80;6.80;6.80
78316;PMS7003;67572;50.930;18.276;2023-08-21T13:44:30;7.00;7.00;7.00
78316;PMS7003;67572;50.930;18.276;2023-08-21T13:47:34;8.40;6.60;5.80
78316;PMS7003;67572;50.930;18.276;2023-08-21T13:50:40;6.20;6.20;5.00
78316;PMS7003;67572;50.930;18.276;2023-08-21T13:53:43;8.60;8.60;8.60
78316;PMS7003;67572;50.930;18.276;2023-08-21T13:56:47;8.40;8.40;7.40
78316;PMS7003;67572;50.930;18.276;2023-08-21T13:59:50;8.00;8.00;7.00
78316;PMS7003;67572;50.930;18.276;2023-08-21T14:02:53;7.40;7.00;5.40
78316;PMS7003;67572;50.930;18.276;2023-08-21T14:05:58;8.00;8.00;6.20
78316;PMS7003;67572;50.930;18.276;2023-08-21T14:09:01;7.20;7.20;7.00
78316;PMS7003;67572;50.930;18.276;2023-08-21T14:12:05;5.00;5.00;5.00
78316;PMS7003;67572;50.930;18.276;2023-08-21T14:15:09;5.00;5.00;5.00
78316;PMS7003;67572;50.930;18.276;2023-08-21T14:18:13;5.80;5.80;5.80
78316;PMS7003;67572;50.930;18.276;2023-08-21T14:21:17;7.80;5.80;5.80
78316;PMS7003;67572;50.930;18.276;2023-08-21T14:24:23;8.00;8.00;8.00
78316;PMS7003;67572;50.930;18.276;2023-08-21T14:27:26;8.60;8.60;8.40
78316;PMS7003;67572;50.930;18.276;2023-08-21T14:30:30;6.20;6.20;5.80
78316;PMS7003;67572;50.930;18.276;2023-08-21T14:33:36;7.40;7.40;7.00
78316;PMS7003;67572;50.930;18.276;2023-08-21T14:36:47;5.00;3.60;3.60
78316;PMS7003;67572;50.930;18.276;2023-08-21T14:39:50;7.60;7.60;6.80
78316;PMS7003;67572;50.930;18.276;2023-08-21T14:42:53;4.00;4.00;4.00
78316;PMS7003;67572;50.930;18.276;2023-08-21T14:45:59;9.00;9.00;8.00
78316;PMS7003;67572;50.930;18.276;2023-08-21T14:49:02;8.80;8.80;8.00
78316;PMS7003;67572;50.930;18.276;2023-08-21T14:52:07;5.00;5.00;5.00
78316;PMS7003;67572;50.930;18.276;2023-08-21T14:55:11;7.80;7.80;7.80
78316;PMS7003;67572;50.930;18.276;2023-08-21T14:58:14;3.80;3.80;3.20
78316;PMS7003;67572;50.930;18.276;2023-08-21T15:01:17;6.80;6.80;4.60
78316;PMS7003;67572;50.930;18.276;2023-08-21T15:04:21;8.00;6.20;6.20
78316;PMS7003;67572;50.930;18.276;2023-08-21T15:07:26;7.20;7.20;7.00
78316;PMS7003;67572;50.930;18.276;2023-08-21T15:10:30;7.80;7.80;7.40
78316;PMS7003;67572;50.930;18.276;2023-08-21T15:13:33;5.20;5.20;4.80
78316;PMS7003;67572;50.930;18.276;2023-08-21T15:16:37;5.00;5.00;5.00
78316;PMS7003;67572;50.930;18.276;2023-08-21T15:19:40;4.80;4.80;4.60
78316;PMS7003;67572;50.930;18.276;2023-08-21T15:22:45;7.00;7.00;6.60
78316;PMS7003;67572;50.930;18.276;2023-08-21T15:25:49;5.40;5.40;5.40
78316;PMS7003;67572;50.930;18.276;2023-08-21T15:28:53;4.80;4.80;4.80
78316;PMS7003;67572;50.930;18.276;2023-08-21T15:31:56;4.00;4.00;4.00
78316;PMS7003;67572;50.930;18.276;2023-08-21T15:34:59;6.20;6.20;6.20
78316;PMS7003;67572;50.930;18.276;2023-08-21T15:38:07;5.00;5.00;4.40
78316;PMS7003;67572;50.930;18.276;2023-08-21T15:41:11;6.60;6.60;6.60
78316;PMS7003;67572;50.930;18.276;2023-08-21T15:44:14;2.80;2.80;2.80
78316;PMS7003;67572;50.930;18.276;2023-08-21T15:47:17;3.80;3.80;3.80
78316;PMS7003;67572;50.930;18.276;2023-08-21T15:50:41;5.00;4.80;4.80
78316;PMS7003;67572;50.930;18.276;2023-08-21T15:53:45;7.00;5.00;5.00
78316;PMS7003;67572;50.930;18.276;2023-08-21T15:56:48;0.60;0.60;0.60
78316;PMS7003;67572;50.930;18.276;2023-08-21T15:59:52;4.60;4.60;3.80
78316;PMS7003;67572;50.930;18.276;2023-08-21T16:02:55;6.00;6.00;4.60
78316;PMS7003;67572;50.930;18.276;2023-08-21T16:05:58;4.40;3.20;3.20
78316;PMS7003;67572;50.930;18.276;2023-08-21T16:09:03;3.80;3.80;3.00
78316;PMS7003;67572;50.930;18.276;2023-08-21T16:12:07;3.00;3.00;3.00
78316;PMS7003;67572;50.930;18.276;2023-08-21T16:15:10;2.60;2.60;2.60
78316;PMS7003;67572;50.930;18.276;2023-08-21T16:18:13;3.40;3.00;2.20
78316;PMS7003;67572;50.930;18.276;2023-08-21T16:21:17;5.20;5.20;4.40
78316;PMS7003;67572;50.930;18.276;2023-08-21T16:24:22;3.40;3.40;3.20
78316;PMS7003;67572;50.930;18.276;2023-08-21T16:27:25;2.00;2.00;1.60
78316;PMS7003;67572;50.930;18.276;2023-08-21T16:30:28;3.60;3.60;3.20
78316;PMS7003;67572;50.930;18.276;2023-08-21T16:33:32;5.20;5.20;4.80
78316;PMS7003;67572;50.930;18.276;2023-08-21T16:36:37;3.40;3.40;3.40
78316;PMS7003;67572;50.930;18.276;2023-08-21T16:39:42;6.00;6.00;4.40
78316;PMS7003;67572;50.930;18.276;2023-08-21T16:42:45;4.00;4.00;3.40
78316;PMS7003;67572;50.930;18.276;2023-08-21T16:45:48;6.40;6.40;6.20
78316;PMS7003;67572;50.930;18.276;2023-08-21T16:48:52;6.20;6.20;6.20
78316;PMS7003;67572;50.930;18.276;2023-08-21T16:51:55;7.00;7.00;5.60
78316;PMS7003;67572;50.930;18.276;2023-08-21T16:55:00;4.60;4.60;4.40
78316;PMS7003;67572;50.930;18.276;2023-08-21T16:58:04;8.20;6.80;6.80
78316;PMS7003;67572;50.930;18.276;2023-08-21T17:01:08;6.20;6.20;6.00
78316;PMS7003;67572;50.930;18.276;2023-08-21T17:04:11;6.60;6.60;6.60
78316;PMS7003;67572;50.930;18.276;2023-08-21T17:07:15;8.00;7.00;7.00
78316;PMS7003;67572;50.930;18.276;2023-08-21T17:15:21;6.80;6.80;6.40
78316;PMS7003;67572;50.930;18.276;2023-08-21T17:18:25;5.00;5.00;4.60
78316;PMS7003;67572;50.930;18.276;2023-08-21T17:21:28;5.60;5.60;5.60
78316;PMS7003;67572;50.930;18.276;2023-08-21T17:24:31;4.40;4.40;3.60
78316;PMS7003;67572;50.930;18.276;2023-08-21T17:27:35;6.20;6.20;6.00
78316;PMS7003;67572;50.930;18.276;2023-08-21T17:30:40;4.60;4.60;4.60
78316;PMS7003;67572;50.930;18.276;2023-08-21T17:33:43;6.20;4.40;4.40
78316;PMS7003;67572;50.930;18.276;2023-08-21T17:36:47;6.00;6.00;6.00
78316;PMS7003;67572;50.930;18.276;2023-08-21T17:39:53;6.00;6.00;6.00
78316;PMS7003;67572;50.930;18.276;2023-08-21T17:42:56;5.80;5.80;5.80
78316;PMS7003;67572;50.930;18.276;2023-08-21T17:46:01;7.00;7.00;6.00
78316;PMS7003;67572;50.930;18.276;2023-08-21T17:49:05;10.20;10.20;9.60
78316;PMS7003;67572;50.930;18.276;2023-08-21T17:52:08;7.40;6.00;6.00
78316;PMS7003;67572;50.930;18.276;2023-08-21T17:55:11;7.60;7.60;7.00
78316;PMS7003;67572;50.930;18.276;2023-08-21T17:58:14;9.80;8.60;7.40